Time;durP1;ratioP1;P1;durP2;ratioP2;P2;SDS_P1;SDS_P2;PMS_P1;PMS_P2;Temp;Humidity;BMP_temperature;BMP_pressure;BME280_temperature;BME280_humidity;BME280_pressure;Samples;Min_cycle;Max_cycle;Signal;HPM_P1;HPM_P2
2021/05/18 00:01:44;;;;;;;7.40;4.20;;;;;;;;;;4992026;28;20640;-83
2021/05/18 00:04:10;;;;;;;6.17;3.77;;;;;;;;;;5012742;28;20177;-82
2021/05/18 00:06:36;;;;;;;6.87;3.33;;;;;;;;;;4972135;28;20188;-83
2021/05/18 00:11:48;;;;;;;10.27;4.20;;;;;;;;;;4976027;28;20207;-82
2021/05/18 00:14:17;;;;;;;5.07;3.10;;;;;;;;;;5015602;28;20288;-82
2021/05/18 00:16:43;;;;;;;5.30;3.50;;;;;;;;;;4980008;28;20184;-82
2021/05/18 00:19:09;;;;;;;6.97;3.87;;;;;;;;;;5002406;28;20212;-83
2021/05/18 00:21:35;;;;;;;6.37;3.77;;;;;;;;;;4970952;28;20249;-82
2021/05/18 00:24:02;;;;;;;5.40;3.50;;;;;;;;;;4987606;28;20240;-82
2021/05/18 00:26:28;;;;;;;6.50;3.43;;;;;;;;;;4980289;28;20258;-82
2021/05/18 00:28:54;;;;;;;4.87;4.00;;;;;;;;;;5003893;28;20560;-83
2021/05/18 00:31:20;;;;;;;5.97;3.50;;;;;;;;;;4999116;28;20612;-82
2021/05/18 00:33:46;;;;;;;6.07;3.37;;;;;;;;;;4980479;28;20209;-82
2021/05/18 00:36:13;;;;;;;6.03;3.10;;;;;;;;;;4976945;28;20615;-82
2021/05/18 00:38:39;;;;;;;5.40;3.40;;;;;;;;;;4996737;28;20208;-82
2021/05/18 00:41:06;;;;;;;5.80;3.07;;;;;;;;;;5002212;28;20334;-82
2021/05/18 00:43:32;;;;;;;4.53;3.70;;;;;;;;;;4998821;28;20195;-82
2021/05/18 00:45:58;;;;;;;5.53;3.70;;;;;;;;;;4972670;28;20201;-82
2021/05/18 00:48:24;;;;;;;5.00;3.80;;;;;;;;;;4976930;28;20180;-82
2021/05/18 00:50:56;;;;;;;9.47;4.00;;;;;;;;;;4983904;28;20189;-82
2021/05/18 00:53:22;;;;;;;4.15;3.40;;;;;;;;;;4977598;28;20435;-82
2021/05/18 00:56:03;;;;;;;4.97;2.90;;;;;;;;;;4978715;28;20222;-82
2021/05/18 00:58:34;;;;;;;7.07;3.70;;;;;;;;;;4976769;28;20196;-83
2021/05/18 01:01:15;;;;;;;4.07;3.30;;;;;;;;;;4988593;28;20252;-83
2021/05/18 01:03:41;;;;;;;6.03;3.13;;;;;;;;;;4995690;28;20184;-83
2021/05/18 01:08:51;;;;;;;4.03;2.90;;;;;;;;;;4989647;28;20286;-83
2021/05/18 01:11:20;;;;;;;3.50;3.20;;;;;;;;;;5017111;28;20184;-83
2021/05/18 01:13:46;;;;;;;3.83;3.00;;;;;;;;;;4971146;28;20730;-83
2021/05/18 01:16:12;;;;;;;3.10;2.80;;;;;;;;;;4982614;28;20191;-83
2021/05/18 01:18:41;;;;;;;4.00;3.47;;;;;;;;;;4982348;28;20219;-83
2021/05/18 01:21:07;;;;;;;4.03;2.87;;;;;;;;;;5000252;28;20248;-83
2021/05/18 01:23:34;;;;;;;6.50;3.40;;;;;;;;;;5003456;28;20511;-83
2021/05/18 01:26:00;;;;;;;4.17;3.17;;;;;;;;;;4987309;28;20176;-83
2021/05/18 01:28:27;;;;;;;3.57;2.97;;;;;;;;;;5004164;28;20180;-83
2021/05/18 01:30:53;;;;;;;5.67;3.83;;;;;;;;;;4988604;28;20816;-83
2021/05/18 01:33:19;;;;;;;6.47;3.40;;;;;;;;;;4981600;28;20650;-84
2021/05/18 01:35:46;;;;;;;7.63;4.00;;;;;;;;;;4986155;28;20180;-83
2021/05/18 01:38:15;;;;;;;4.70;3.00;;;;;;;;;;4973490;28;20262;-83
2021/05/18 01:43:07;;;;;;;5.10;3.13;;;;;;;;;;4973840;28;20191;-83
2021/05/18 01:45:34;;;;;;;5.67;3.37;;;;;;;;;;4975113;28;20203;-84
2021/05/18 01:48:02;;;;;;;4.90;3.47;;;;;;;;;;4977704;28;20267;-84
2021/05/18 01:50:30;;;;;;;3.83;3.43;;;;;;;;;;4970441;28;20192;-83
2021/05/18 01:52:56;;;;;;;4.27;3.87;;;;;;;;;;4973780;28;20183;-83
2021/05/18 01:55:58;;;;;;;5.60;3.80;;;;;;;;;;4984485;28;20191;-83
2021/05/18 01:58:10;;;;;;;5.40;3.60;;;;;;;;;;4988391;28;20212;-83
2021/05/18 02:00:37;;;;;;;6.53;4.00;;;;;;;;;;4973345;28;20183;-83
2021/05/18 02:03:03;;;;;;;5.77;3.97;;;;;;;;;;4973337;28;20176;-83
2021/05/18 02:05:32;;;;;;;5.23;3.37;;;;;;;;;;4971798;28;20191;-83
2021/05/18 02:07:59;;;;;;;4.40;3.73;;;;;;;;;;4989063;28;20701;-83
2021/05/18 02:10:25;;;;;;;5.47;3.93;;;;;;;;;;5010707;28;20187;-83
2021/05/18 02:12:54;;;;;;;4.97;3.87;;;;;;;;;;5001088;28;20183;-83
2021/05/18 02:17:52;;;;;;;5.63;3.47;;;;;;;;;;4983245;28;20208;-83
2021/05/18 02:20:30;;;;;;;4.50;4.10;;;;;;;;;;4976616;28;20253;-83
2021/05/18 02:25:41;;;;;;;5.13;4.50;;;;;;;;;;4982077;28;20195;-83
2021/05/18 02:28:08;;;;;;;8.17;4.70;;;;;;;;;;4973677;28;20179;-83
2021/05/18 02:30:35;;;;;;;5.50;4.93;;;;;;;;;;5000120;28;21174;-83
2021/05/18 02:33:03;;;;;;;5.13;4.13;;;;;;;;;;4972191;28;20186;-83
2021/05/18 02:35:29;;;;;;;5.30;4.80;;;;;;;;;;4987898;28;20180;-83
2021/05/18 02:37:55;;;;;;;5.67;4.80;;;;;;;;;;4976623;28;20252;-83
2021/05/18 02:40:24;;;;;;;5.40;4.80;;;;;;;;;;5003034;28;20218;-83
2021/05/18 02:42:50;;;;;;;6.90;4.77;;;;;;;;;;4992082;28;20245;-82
2021/05/18 02:50:36;;;;;;;6.53;4.93;;;;;;;;;;4964735;28;20675;-82
2021/05/18 02:53:03;;;;;;;4.50;4.10;;;;;;;;;;4995829;28;20180;-83
2021/05/18 02:58:12;;;;;;;7.13;5.60;;;;;;;;;;4978931;28;20253;-83
2021/05/18 03:00:38;;;;;;;6.67;5.20;;;;;;;;;;4991402;28;20206;-83
2021/05/18 03:03:04;;;;;;;6.07;5.23;;;;;;;;;;4996787;28;20197;-82
2021/05/18 03:05:30;;;;;;;5.60;4.80;;;;;;;;;;4974872;28;20548;-83
2021/05/18 03:07:56;;;;;;;5.33;4.53;;;;;;;;;;4969399;28;20184;-82
2021/05/18 03:10:22;;;;;;;5.50;5.00;;;;;;;;;;4989855;28;20184;-83
2021/05/18 03:12:48;;;;;;;7.63;5.60;;;;;;;;;;4990061;28;20637;-83
2021/05/18 03:15:15;;;;;;;8.47;5.87;;;;;;;;;;4970950;28;20216;-82
2021/05/18 03:17:42;;;;;;;6.03;5.43;;;;;;;;;;4980941;28;20214;-82
2021/05/18 03:20:09;;;;;;;9.17;6.23;;;;;;;;;;4973041;28;20181;-82
2021/05/18 03:22:35;;;;;;;7.87;5.77;;;;;;;;;;4998597;28;20180;-82
2021/05/18 03:25:02;;;;;;;5.70;5.10;;;;;;;;;;4987489;28;20185;-82
2021/05/18 03:27:29;;;;;;;7.07;6.37;;;;;;;;;;4975471;28;20172;-82
2021/05/18 03:29:55;;;;;;;6.80;6.00;;;;;;;;;;4978663;28;20230;-82
2021/05/18 03:35:06;;;;;;;6.43;5.77;;;;;;;;;;4974309;28;20195;-82
2021/05/18 03:40:09;;;;;;;8.50;6.73;;;;;;;;;;4973609;28;20260;-82
2021/05/18 03:42:43;;;;;;;6.67;5.97;;;;;;;;;;4972273;28;20190;-84
2021/05/18 03:45:31;;;;;;;7.50;6.80;;;;;;;;;;4972864;28;20226;-82
2021/05/18 03:53:44;;;;;;;8.17;7.03;;;;;;;;;;4969544;28;20560;-83
2021/05/18 03:59:07;;;;;;;7.00;6.33;;;;;;;;;;4973243;28;20211;-83
2021/05/18 04:04:37;;;;;;;6.57;5.90;;;;;;;;;;4950042;28;20661;-82
2021/05/18 04:18:00;;;;;;;8.30;6.43;;;;;;;;;;5005313;28;20227;-82
2021/05/18 04:26:12;;;;;;;6.13;5.53;;;;;;;;;;4976602;28;20189;-82
2021/05/18 04:42:54;;;;;;;7.00;5.80;;;;;;;;;;4980759;28;20225;-82
2021/05/18 04:48:23;;;;;;;6.70;5.63;;;;;;;;;;4972127;28;20610;-82
2021/05/18 04:51:04;;;;;;;7.23;5.57;;;;;;;;;;4977660;28;20184;-83
2021/05/18 05:01:48;;;;;;;5.83;5.07;;;;;;;;;;4970086;28;20332;-86
2021/05/18 05:07:02;;;;;;;5.70;5.03;;;;;;;;;;4961068;28;20187;-83
2021/05/18 05:09:33;;;;;;;5.93;5.10;;;;;;;;;;4968109;28;20279;-83
2021/05/18 05:14:44;;;;;;;4.60;4.20;;;;;;;;;;4971789;28;20281;-83
2021/05/18 05:17:10;;;;;;;5.60;4.87;;;;;;;;;;4978435;28;20183;-83
2021/05/18 05:19:36;;;;;;;5.50;4.63;;;;;;;;;;4977414;28;20204;-83
2021/05/18 05:22:03;;;;;;;5.73;5.23;;;;;;;;;;4968031;28;20196;-83
2021/05/18 05:24:29;;;;;;;5.57;5.00;;;;;;;;;;5038854;28;20188;-83
2021/05/18 05:26:56;;;;;;;5.40;4.40;;;;;;;;;;4970699;28;20593;-83
2021/05/18 05:29:22;;;;;;;6.57;4.90;;;;;;;;;;4976125;28;20532;-83
2021/05/18 05:31:50;;;;;;;6.33;5.33;;;;;;;;;;4967865;28;20197;-83
2021/05/18 05:34:18;;;;;;;4.53;4.13;;;;;;;;;;4968757;28;20606;-83
2021/05/18 05:36:44;;;;;;;5.67;4.80;;;;;;;;;;4966401;28;20212;-83
2021/05/18 05:39:13;;;;;;;7.20;5.17;;;;;;;;;;4966950;28;20211;-82
2021/05/18 05:41:39;;;;;;;6.33;5.50;;;;;;;;;;4971365;28;20233;-82
2021/05/18 05:44:05;;;;;;;5.90;5.40;;;;;;;;;;5002430;28;20179;-82
2021/05/18 05:46:32;;;;;;;6.83;5.37;;;;;;;;;;4969968;28;20243;-83
2021/05/18 05:48:58;;;;;;;7.37;5.80;;;;;;;;;;4965843;28;20187;-82
2021/05/18 05:51:26;;;;;;;6.27;5.67;;;;;;;;;;4971592;28;20190;-82
2021/05/18 05:53:53;;;;;;;7.93;5.70;;;;;;;;;;4968062;28;20231;-83
2021/05/18 05:56:19;;;;;;;8.00;6.40;;;;;;;;;;4970348;28;20626;-82
2021/05/18 05:58:46;;;;;;;7.43;6.20;;;;;;;;;;4968098;28;20217;-82
2021/05/18 06:01:12;;;;;;;7.37;6.17;;;;;;;;;;4972294;28;20546;-83
2021/05/18 06:03:39;;;;;;;6.60;5.23;;;;;;;;;;4971601;28;20171;-83
2021/05/18 06:06:05;;;;;;;7.60;6.40;;;;;;;;;;4974277;28;20172;-83
2021/05/18 06:08:35;;;;;;;6.43;5.30;;;;;;;;;;4970844;28;20179;-83
2021/05/18 06:11:08;;;;;;;9.30;6.07;;;;;;;;;;4963523;28;20260;-83
2021/05/18 06:13:47;;;;;;;6.95;6.25;;;;;;;;;;5007710;28;20608;-83
2021/05/18 06:46:17;;;;;;;11.07;8.80;;;;;;;;;;4973091;28;20543;-83
2021/05/18 06:48:46;;;;;;;10.80;9.27;;;;;;;;;;4973388;28;20278;-83
2021/05/18 06:51:12;;;;;;;13.03;8.73;;;;;;;;;;4972658;28;20187;-83
2021/05/18 06:53:38;;;;;;;13.20;10.20;;;;;;;;;;4979425;28;20536;-83
2021/05/18 06:56:05;;;;;;;11.37;10.17;;;;;;;;;;4978293;28;20516;-82
2021/05/18 07:01:04;;;;;;;15.77;12.20;;;;;;;;;;4978177;28;20183;-82
2021/05/18 07:03:36;;;;;;;15.10;12.33;;;;;;;;;;4970045;28;20212;-80
2021/05/18 07:11:01;;;;;;;15.93;12.73;;;;;;;;;;4967491;28;20235;-80
2021/05/18 07:13:27;;;;;;;13.60;11.83;;;;;;;;;;4970843;28;20603;-81
2021/05/18 07:15:53;;;;;;;15.67;13.07;;;;;;;;;;4968742;28;20184;-81
2021/05/18 07:18:19;;;;;;;15.03;13.43;;;;;;;;;;4972091;28;20241;-81
2021/05/18 07:20:45;;;;;;;16.03;13.53;;;;;;;;;;4972102;28;20199;-81
2021/05/18 07:23:15;;;;;;;17.00;13.07;;;;;;;;;;4970698;28;20183;-81
2021/05/18 07:25:41;;;;;;;17.87;13.77;;;;;;;;;;4970103;28;20187;-81
2021/05/18 07:28:08;;;;;;;14.70;13.03;;;;;;;;;;4972810;28;20530;-81
2021/05/18 07:30:35;;;;;;;14.63;12.40;;;;;;;;;;4979696;28;20187;-81
2021/05/18 07:33:01;;;;;;;14.57;12.60;;;;;;;;;;4968910;28;20237;-80
2021/05/18 07:35:27;;;;;;;15.77;13.30;;;;;;;;;;4988994;28;20192;-81
2021/05/18 07:37:53;;;;;;;16.37;13.07;;;;;;;;;;4973608;28;20245;-82
2021/05/18 07:40:19;;;;;;;17.60;13.07;;;;;;;;;;4973138;28;20177;-83
2021/05/18 07:42:46;;;;;;;15.07;12.93;;;;;;;;;;4969550;28;20176;-81
2021/05/18 07:45:14;;;;;;;15.87;12.70;;;;;;;;;;4970367;28;20203;-81
2021/05/18 07:47:40;;;;;;;16.70;12.53;;;;;;;;;;4989165;28;20651;-82
2021/05/18 07:50:10;;;;;;;15.13;11.87;;;;;;;;;;4988441;28;20643;-81
2021/05/18 08:06:14;;;;;;;15.17;13.40;;;;;;;;;;4981725;28;20278;-81
2021/05/18 08:08:40;;;;;;;15.40;13.13;;;;;;;;;;4969749;28;20211;-82
2021/05/18 08:11:07;;;;;;;19.00;13.03;;;;;;;;;;4968658;28;20180;-81
2021/05/18 08:13:33;;;;;;;15.00;12.93;;;;;;;;;;4962844;28;20662;-81
2021/05/18 08:21:53;;;;;;;19.13;14.17;;;;;;;;;;4975654;28;20266;-81
2021/05/18 08:55:33;;;;;;;20.53;15.60;;;;;;;;;;4971319;28;20184;-80
2021/05/18 09:38:05;;;;;;;20.90;17.10;;;;;;;;;;4969536;28;20196;-81
2021/05/18 10:26:01;;;;;;;14.30;12.87;;;;;;;;;;4967832;28;20179;-80
2021/05/18 10:35:30;;;;;;;13.43;12.07;;;;;;;;;;4970759;28;20219;-80
2021/05/18 10:38:01;;;;;;;13.53;12.13;;;;;;;;;;4961618;28;20213;-80
2021/05/18 10:40:29;;;;;;;12.87;11.57;;;;;;;;;;4969698;28;20179;-81
2021/05/18 10:43:10;;;;;;;11.80;10.70;;;;;;;;;;4967955;28;20180;-80
2021/05/18 10:45:53;;;;;;;12.33;10.67;;;;;;;;;;4968447;28;20227;-81
2021/05/18 10:48:37;;;;;;;10.33;9.40;;;;;;;;;;4968983;28;20552;-81
2021/05/18 10:51:22;;;;;;;10.50;9.50;;;;;;;;;;4985958;28;20188;-81
2021/05/18 10:54:07;;;;;;;9.80;8.80;;;;;;;;;;5001248;28;20172;-81
2021/05/18 10:56:52;;;;;;;11.73;9.47;;;;;;;;;;4968867;28;20218;-81
2021/05/18 10:59:18;;;;;;;9.60;8.67;;;;;;;;;;4964648;28;20235;-81
2021/05/18 11:01:45;;;;;;;9.00;8.20;;;;;;;;;;4962082;28;20184;-81
2021/05/18 11:04:12;;;;;;;9.83;8.80;;;;;;;;;;4961975;28;20187;-81
2021/05/18 11:06:51;;;;;;;9.70;8.77;;;;;;;;;;4965138;28;20180;-81
2021/05/18 11:09:18;;;;;;;10.30;8.37;;;;;;;;;;4970280;28;20583;-81
2021/05/18 11:11:46;;;;;;;9.60;8.50;;;;;;;;;;4973519;28;20278;-81
2021/05/18 11:14:12;;;;;;;9.37;8.10;;;;;;;;;;4971623;28;20219;-80
2021/05/18 11:16:38;;;;;;;9.57;8.67;;;;;;;;;;4970154;28;20180;-81
2021/05/18 11:19:11;;;;;;;8.77;7.53;;;;;;;;;;4964817;28;20203;-81
2021/05/18 11:21:40;;;;;;;9.53;8.53;;;;;;;;;;4978451;28;20195;-81
2021/05/18 11:24:10;;;;;;;8.90;8.00;;;;;;;;;;4969180;28;20264;-81
2021/05/18 11:26:46;;;;;;;9.90;8.10;;;;;;;;;;4970728;28;20180;-81
2021/05/18 11:29:12;;;;;;;10.13;7.83;;;;;;;;;;4973024;28;20209;-81
2021/05/18 11:31:39;;;;;;;8.77;7.87;;;;;;;;;;4968838;28;20189;-81
2021/05/18 11:34:06;;;;;;;10.67;7.90;;;;;;;;;;4963748;28;20829;-80
2021/05/18 11:36:35;;;;;;;9.37;8.33;;;;;;;;;;4981794;28;20223;-81
2021/05/18 11:39:02;;;;;;;10.97;8.47;;;;;;;;;;4959357;28;20658;-80
2021/05/18 11:41:29;;;;;;;8.63;7.80;;;;;;;;;;4995713;28;20255;-80
2021/05/18 11:43:57;;;;;;;11.03;8.30;;;;;;;;;;4990916;28;20192;-81
2021/05/18 11:46:24;;;;;;;8.10;7.30;;;;;;;;;;5003501;28;20670;-80
2021/05/18 11:48:59;;;;;;;8.60;7.70;;;;;;;;;;4970378;28;20500;-80
2021/05/18 11:51:25;;;;;;;9.30;6.97;;;;;;;;;;4983168;28;20649;-80
2021/05/18 11:53:52;;;;;;;9.07;8.07;;;;;;;;;;4978552;28;20172;-80
2021/05/18 11:56:20;;;;;;;9.30;8.30;;;;;;;;;;4980373;28;20272;-80
2021/05/18 11:58:46;;;;;;;10.03;8.70;;;;;;;;;;4960344;28;20570;-76
2021/05/18 12:01:12;;;;;;;13.23;8.93;;;;;;;;;;4989814;28;20186;-76
2021/05/18 12:03:39;;;;;;;11.37;9.33;;;;;;;;;;4980904;28;20168;-76
2021/05/18 12:06:06;;;;;;;10.53;9.53;;;;;;;;;;4978590;28;20172;-76
2021/05/18 12:08:34;;;;;;;10.83;9.73;;;;;;;;;;5039631;28;20268;-76
2021/05/18 12:11:19;;;;;;;11.00;9.87;;;;;;;;;;4982095;28;20176;-80
2021/05/18 12:13:47;;;;;;;10.93;9.60;;;;;;;;;;4986447;28;20309;-76
2021/05/18 12:16:13;;;;;;;12.20;9.80;;;;;;;;;;4981066;28;20202;-80
2021/05/18 12:18:42;;;;;;;9.17;8.27;;;;;;;;;;4994570;28;20333;-80
2021/05/18 12:21:18;;;;;;;8.23;7.27;;;;;;;;;;4972598;28;20185;-80
2021/05/18 12:23:45;;;;;;;6.27;5.50;;;;;;;;;;4975596;28;20207;-81
2021/05/18 12:26:20;;;;;;;4.73;4.00;;;;;;;;;;4979648;28;20184;-81
2021/05/18 12:28:53;;;;;;;4.50;3.20;;;;;;;;;;5002584;28;20724;-80
2021/05/18 12:31:30;;;;;;;3.47;2.97;;;;;;;;;;4972466;28;20210;-80
2021/05/18 12:33:57;;;;;;;3.20;2.97;;;;;;;;;;5004545;28;20176;-77
2021/05/18 12:36:23;;;;;;;3.07;2.73;;;;;;;;;;4976232;28;20183;-80
2021/05/18 12:39:28;;;;;;;3.30;3.00;;;;;;;;;;4977306;28;20212;-80
2021/05/18 12:41:57;;;;;;;3.30;2.73;;;;;;;;;;5009505;28;20194;-80
2021/05/18 12:44:25;;;;;;;3.00;2.77;;;;;;;;;;5021553;28;20234;-76
2021/05/18 12:46:52;;;;;;;4.00;3.20;;;;;;;;;;4995662;28;20194;-80
2021/05/18 12:49:35;;;;;;;4.00;3.47;;;;;;;;;;4995979;28;20591;-81
2021/05/18 12:52:14;;;;;;;4.03;3.73;;;;;;;;;;5023310;28;20224;-81
2021/05/18 12:54:41;;;;;;;6.27;5.30;;;;;;;;;;5017125;28;20173;-80
2021/05/18 12:57:08;;;;;;;6.27;4.63;;;;;;;;;;5025727;28;20184;-80
2021/05/18 12:59:34;;;;;;;6.07;5.50;;;;;;;;;;4964397;28;20204;-80
2021/05/18 13:02:01;;;;;;;6.20;5.60;;;;;;;;;;4957988;28;20195;-80
2021/05/18 13:04:27;;;;;;;7.00;4.97;;;;;;;;;;4967326;28;20705;-80
2021/05/18 13:06:54;;;;;;;5.80;5.10;;;;;;;;;;4968948;28;20176;-80
2021/05/18 13:09:21;;;;;;;6.73;5.93;;;;;;;;;;4969764;28;20180;-80
2021/05/18 13:14:51;;;;;;;7.37;6.63;;;;;;;;;;5000418;28;20227;-80
2021/05/18 13:17:17;;;;;;;6.40;5.80;;;;;;;;;;4996038;28;20242;-80
2021/05/18 13:19:43;;;;;;;7.00;6.30;;;;;;;;;;4967637;28;20693;-80
2021/05/18 13:22:09;;;;;;;7.50;5.50;;;;;;;;;;4968201;28;20263;-80
2021/05/18 13:27:19;;;;;;;7.23;6.00;;;;;;;;;;5008925;28;20743;-80
2021/05/18 13:29:45;;;;;;;8.83;5.73;;;;;;;;;;4968881;28;20223;-80
2021/05/18 13:32:12;;;;;;;6.23;5.63;;;;;;;;;;4970505;28;20203;-80
2021/05/18 13:34:38;;;;;;;5.87;5.27;;;;;;;;;;4966342;28;20191;-82
2021/05/18 13:37:04;;;;;;;6.80;5.57;;;;;;;;;;4972830;28;20208;-80
2021/05/18 13:39:30;;;;;;;6.47;5.87;;;;;;;;;;4967809;28;20268;-80
2021/05/18 13:41:59;;;;;;;5.83;5.33;;;;;;;;;;4971500;28;20192;-80
2021/05/18 13:44:25;;;;;;;8.70;6.10;;;;;;;;;;4972730;28;20195;-81
2021/05/18 13:46:55;;;;;;;5.67;5.17;;;;;;;;;;4981366;28;20176;-81
2021/05/18 13:49:21;;;;;;;6.43;5.10;;;;;;;;;;4974574;28;20229;-81
2021/05/18 13:51:48;;;;;;;7.23;5.60;;;;;;;;;;4980034;28;20244;-81
2021/05/18 13:54:14;;;;;;;6.73;5.40;;;;;;;;;;4966800;28;20200;-79
2021/05/18 13:56:41;;;;;;;6.23;4.93;;;;;;;;;;4967737;28;20196;-80
2021/05/18 13:59:07;;;;;;;7.27;5.60;;;;;;;;;;4969733;28;20634;-80
2021/05/18 14:01:34;;;;;;;5.47;4.83;;;;;;;;;;5001711;28;20175;-80
2021/05/18 14:04:00;;;;;;;11.77;5.73;;;;;;;;;;4968638;28;20520;-80
2021/05/18 14:06:33;;;;;;;5.20;4.70;;;;;;;;;;4970881;28;20176;-78
2021/05/18 14:08:59;;;;;;;5.20;4.80;;;;;;;;;;4966954;28;20195;-78
2021/05/18 14:11:25;;;;;;;6.10;4.97;;;;;;;;;;4990267;28;20180;-79
2021/05/18 14:13:52;;;;;;;5.23;4.73;;;;;;;;;;4965534;28;20219;-80
2021/05/18 14:16:21;;;;;;;5.50;5.00;;;;;;;;;;4991378;28;20190;-80
2021/05/18 14:18:48;;;;;;;4.17;3.83;;;;;;;;;;4984330;28;20204;-80
2021/05/18 14:21:21;;;;;;;5.20;4.10;;;;;;;;;;5016922;28;20212;-81
2021/05/18 14:23:57;;;;;;;4.87;4.47;;;;;;;;;;5004127;28;20203;-80
2021/05/18 14:26:30;;;;;;;4.67;4.27;;;;;;;;;;4968230;28;20267;-80
2021/05/18 14:28:56;;;;;;;7.73;4.63;;;;;;;;;;4966444;28;20190;-81
2021/05/18 14:31:23;;;;;;;4.73;4.33;;;;;;;;;;4971978;28;20212;-80
2021/05/18 14:33:49;;;;;;;5.03;4.53;;;;;;;;;;4968759;28;20188;-80
2021/05/18 14:36:15;;;;;;;6.00;5.50;;;;;;;;;;5011393;28;20176;-80
2021/05/18 14:38:45;;;;;;;5.73;5.13;;;;;;;;;;4967366;28;20212;-79
2021/05/18 14:56:33;;;;;;;5.80;4.23;;;;;;;;;;4979912;28;20695;-80
2021/05/18 14:58:59;;;;;;;4.57;4.00;;;;;;;;;;4996305;28;20702;-81
2021/05/18 15:01:25;;;;;;;3.83;3.47;;;;;;;;;;4982110;28;20734;-80
2021/05/18 15:03:51;;;;;;;6.70;3.17;;;;;;;;;;5027601;28;20626;-81
2021/05/18 15:06:17;;;;;;;3.40;3.10;;;;;;;;;;4966923;28;20222;-81
2021/05/18 15:08:43;;;;;;;5.67;3.40;;;;;;;;;;4990598;28;20184;-81
2021/05/18 15:11:10;;;;;;;4.30;3.53;;;;;;;;;;5013985;28;20185;-81
2021/05/18 15:13:36;;;;;;;3.40;3.03;;;;;;;;;;4974589;28;20211;-82
2021/05/18 15:16:03;;;;;;;5.10;3.00;;;;;;;;;;4982667;28;20184;-81
2021/05/18 15:18:31;;;;;;;5.07;2.87;;;;;;;;;;5007674;28;20253;-81
2021/05/18 15:20:57;;;;;;;3.17;2.87;;;;;;;;;;4976586;28;20275;-78
2021/05/18 15:23:23;;;;;;;3.43;2.20;;;;;;;;;;4981460;28;20180;-80
2021/05/18 15:25:49;;;;;;;3.27;2.40;;;;;;;;;;4966905;28;20210;-79
2021/05/18 15:28:15;;;;;;;2.13;1.93;;;;;;;;;;4975854;28;20283;-81
2021/05/18 15:30:43;;;;;;;2.37;2.10;;;;;;;;;;4966098;28;20223;-82
2021/05/18 15:33:09;;;;;;;4.00;2.27;;;;;;;;;;4966458;28;20188;-87
2021/05/18 15:35:35;;;;;;;2.33;2.13;;;;;;;;;;4966552;28;20192;-83
2021/05/18 15:38:02;;;;;;;2.23;2.03;;;;;;;;;;4966674;28;20283;-81
2021/05/18 15:40:29;;;;;;;2.27;1.80;;;;;;;;;;4969675;28;20275;-83
2021/05/18 15:42:55;;;;;;;3.40;1.90;;;;;;;;;;4968659;28;20180;-83
2021/05/18 15:45:21;;;;;;;2.70;1.70;;;;;;;;;;4984692;28;20215;-79
2021/05/18 15:47:48;;;;;;;4.27;1.90;;;;;;;;;;4961371;28;20195;-83
2021/05/18 15:50:15;;;;;;;2.97;1.40;;;;;;;;;;4973188;28;20191;-84
2021/05/18 15:52:42;;;;;;;2.63;1.80;;;;;;;;;;4969508;28;20238;-84
2021/05/18 15:55:08;;;;;;;1.70;1.60;;;;;;;;;;4974430;28;20187;-84
2021/05/18 15:57:34;;;;;;;2.00;1.80;;;;;;;;;;4970068;28;20180;-77
2021/05/18 16:00:01;;;;;;;2.00;1.83;;;;;;;;;;5011374;28;20290;-81
2021/05/18 16:02:27;;;;;;;3.13;2.10;;;;;;;;;;4974113;28;20245;-81
2021/05/18 16:04:56;;;;;;;1.90;1.70;;;;;;;;;;4997952;28;20263;-81
2021/05/18 16:07:25;;;;;;;3.57;2.20;;;;;;;;;;4984839;28;20191;-81
2021/05/18 16:09:51;;;;;;;4.77;2.03;;;;;;;;;;4971337;28;20218;-81
2021/05/18 16:12:17;;;;;;;2.43;2.10;;;;;;;;;;4970465;28;20735;-81
2021/05/18 16:14:44;;;;;;;3.37;2.27;;;;;;;;;;4992481;28;20280;-81
2021/05/18 16:17:10;;;;;;;4.60;2.97;;;;;;;;;;4971083;28;20210;-81
2021/05/18 16:19:36;;;;;;;4.40;2.40;;;;;;;;;;4971247;28;20707;-80
2021/05/18 16:22:03;;;;;;;3.70;2.70;;;;;;;;;;4972448;28;20184;-81
2021/05/18 16:24:33;;;;;;;3.10;2.80;;;;;;;;;;4973492;28;20184;-81
2021/05/18 16:26:59;;;;;;;5.43;3.43;;;;;;;;;;4971009;28;20175;-81
2021/05/18 16:29:28;;;;;;;3.80;3.47;;;;;;;;;;4978855;28;20214;-81
2021/05/18 16:31:54;;;;;;;6.27;3.77;;;;;;;;;;4965970;28;20283;-81
2021/05/18 16:34:20;;;;;;;7.30;3.67;;;;;;;;;;4966015;28;20184;-80
2021/05/18 16:36:46;;;;;;;5.43;3.60;;;;;;;;;;4968978;28;20187;-81
2021/05/18 16:39:13;;;;;;;4.23;3.30;;;;;;;;;;4971115;28;20204;-81
2021/05/18 16:41:41;;;;;;;3.30;3.00;;;;;;;;;;4995485;28;20184;-80
2021/05/18 16:44:08;;;;;;;4.00;3.40;;;;;;;;;;5009143;28;20172;-81
2021/05/18 16:46:39;;;;;;;5.90;3.97;;;;;;;;;;4976940;28;20203;-79
2021/05/18 16:49:06;;;;;;;6.37;3.87;;;;;;;;;;4995692;28;20266;-78
2021/05/18 16:51:33;;;;;;;4.83;3.73;;;;;;;;;;5020802;28;20276;-79
2021/05/18 16:54:01;;;;;;;6.17;4.00;;;;;;;;;;4971091;28;20188;-83
2021/05/18 16:56:27;;;;;;;8.13;4.70;;;;;;;;;;4972915;28;20180;-84
2021/05/18 16:58:53;;;;;;;6.03;4.80;;;;;;;;;;4968307;28;20216;-84
2021/05/18 17:01:20;;;;;;;9.50;5.47;;;;;;;;;;4967191;28;20180;-83
2021/05/18 17:03:47;;;;;;;6.40;5.30;;;;;;;;;;4977494;28;20188;-83
2021/05/18 17:06:14;;;;;;;5.83;5.03;;;;;;;;;;4969719;28;20207;-83
2021/05/18 17:08:41;;;;;;;6.37;4.63;;;;;;;;;;5006807;28;20555;-84
2021/05/18 17:11:07;;;;;;;9.07;5.77;;;;;;;;;;4972717;28;20227;-83
2021/05/18 17:13:33;;;;;;;9.33;5.27;;;;;;;;;;4970110;28;20619;-83
2021/05/18 17:16:00;;;;;;;8.87;6.00;;;;;;;;;;4974731;28;20212;-83
2021/05/18 17:18:26;;;;;;;8.17;5.67;;;;;;;;;;4993469;28;20577;-83
2021/05/18 17:20:53;;;;;;;9.23;6.70;;;;;;;;;;5013410;28;20191;-83
2021/05/18 17:23:19;;;;;;;7.43;6.57;;;;;;;;;;4968034;28;20523;-83
2021/05/18 17:25:45;;;;;;;6.37;5.10;;;;;;;;;;4968623;28;20185;-85
2021/05/18 17:28:11;;;;;;;8.50;5.67;;;;;;;;;;4969975;28;20274;-84
2021/05/18 17:30:37;;;;;;;6.60;5.80;;;;;;;;;;5013313;28;20180;-85
2021/05/18 17:33:03;;;;;;;6.50;5.83;;;;;;;;;;5009094;28;20180;-85
2021/05/18 17:35:29;;;;;;;6.83;6.00;;;;;;;;;;4996553;28;20176;-85
2021/05/18 17:37:55;;;;;;;5.60;5.07;;;;;;;;;;5001025;28;20488;-86
2021/05/18 17:40:22;;;;;;;5.57;4.93;;;;;;;;;;4984857;28;20279;-86
2021/05/18 17:42:48;;;;;;;6.33;4.43;;;;;;;;;;4971324;28;20176;-85
2021/05/18 17:45:15;;;;;;;5.47;4.93;;;;;;;;;;4971043;28;20203;-85
2021/05/18 17:47:41;;;;;;;6.30;5.13;;;;;;;;;;4974286;28;20180;-85
2021/05/18 17:50:09;;;;;;;5.43;4.70;;;;;;;;;;5005260;28;20192;-85
2021/05/18 17:52:36;;;;;;;5.30;4.40;;;;;;;;;;4981235;28;20275;-85
2021/05/18 17:55:02;;;;;;;4.90;4.13;;;;;;;;;;4972116;28;20184;-85
2021/05/18 17:57:28;;;;;;;7.10;4.40;;;;;;;;;;4963279;28;20220;-85
2021/05/18 17:59:55;;;;;;;5.47;4.73;;;;;;;;;;4994277;28;20288;-85
2021/05/18 18:02:21;;;;;;;7.30;5.00;;;;;;;;;;4970560;28;20181;-85
2021/05/18 18:04:50;;;;;;;6.07;4.00;;;;;;;;;;4972395;28;20190;-85
2021/05/18 18:07:16;;;;;;;5.07;4.03;;;;;;;;;;4982328;28;20311;-85
2021/05/18 18:09:45;;;;;;;5.13;4.63;;;;;;;;;;4967759;28;20199;-85
2021/05/18 18:12:11;;;;;;;6.00;4.13;;;;;;;;;;4972187;28;20199;-85
2021/05/18 18:14:39;;;;;;;6.13;4.20;;;;;;;;;;5012784;28;20231;-85
2021/05/18 18:17:10;;;;;;;6.53;4.43;;;;;;;;;;4966941;28;20633;-85
2021/05/18 18:19:36;;;;;;;6.30;4.70;;;;;;;;;;4962687;28;20296;-85
2021/05/18 18:22:02;;;;;;;8.23;4.53;;;;;;;;;;4969533;28;20181;-85
2021/05/18 18:24:30;;;;;;;4.83;3.90;;;;;;;;;;4963998;28;20491;-85
2021/05/18 18:26:57;;;;;;;4.40;3.90;;;;;;;;;;4964866;28;20260;-85
2021/05/18 18:29:23;;;;;;;4.63;3.93;;;;;;;;;;4969134;28;20218;-83
2021/05/18 18:31:49;;;;;;;6.50;4.47;;;;;;;;;;4967116;28;20279;-83
2021/05/18 18:34:15;;;;;;;4.90;4.40;;;;;;;;;;4968078;28;20195;-83
2021/05/18 18:36:44;;;;;;;4.70;4.07;;;;;;;;;;4962401;28;20191;-83
2021/05/18 18:39:10;;;;;;;5.77;4.67;;;;;;;;;;4960641;28;20203;-83
2021/05/18 18:41:37;;;;;;;4.30;3.90;;;;;;;;;;4961683;28;20198;-83
2021/05/18 18:44:03;;;;;;;5.27;4.77;;;;;;;;;;4967562;28;20708;-83
2021/05/18 18:46:29;;;;;;;7.27;4.43;;;;;;;;;;4965479;28;20204;-83
2021/05/18 18:48:56;;;;;;;4.57;4.10;;;;;;;;;;4963180;28;20605;-83
2021/05/18 18:51:28;;;;;;;4.43;3.97;;;;;;;;;;4965649;28;20191;-83
2021/05/18 18:53:57;;;;;;;3.93;3.50;;;;;;;;;;4966969;28;20544;-83
2021/05/18 18:56:23;;;;;;;5.07;4.17;;;;;;;;;;4970391;28;20199;-83
2021/05/18 18:58:49;;;;;;;4.43;4.00;;;;;;;;;;4998426;28;20212;-83
2021/05/18 19:01:18;;;;;;;4.77;4.27;;;;;;;;;;4967567;28;20183;-83
2021/05/18 19:03:54;;;;;;;4.17;3.77;;;;;;;;;;4967847;28;20191;-83
2021/05/18 19:06:33;;;;;;;6.97;4.10;;;;;;;;;;4972664;28;20215;-83
2021/05/18 19:09:21;;;;;;;4.07;3.77;;;;;;;;;;4967414;28;20219;-83
2021/05/18 19:14:42;;;;;;;4.17;3.83;;;;;;;;;;4970545;28;20249;-83
2021/05/18 19:17:14;;;;;;;4.50;4.10;;;;;;;;;;4968232;28;20184;-83
2021/05/18 19:19:40;;;;;;;5.93;3.93;;;;;;;;;;4970436;28;20245;-82
2021/05/18 19:22:15;;;;;;;6.27;4.17;;;;;;;;;;5005403;28;20615;-83
2021/05/18 19:24:49;;;;;;;4.43;3.80;;;;;;;;;;4989859;28;20180;-82
2021/05/18 19:27:15;;;;;;;4.83;3.80;;;;;;;;;;4998796;28;20184;-83
2021/05/18 19:29:44;;;;;;;4.50;3.80;;;;;;;;;;4983482;28;20198;-83
2021/05/18 19:32:19;;;;;;;4.17;3.77;;;;;;;;;;4984889;28;20250;-83
2021/05/18 19:34:45;;;;;;;5.73;3.87;;;;;;;;;;5005857;28;20190;-83
2021/05/18 19:37:31;;;;;;;4.37;3.73;;;;;;;;;;4973150;28;20221;-83